Time;durP1;ratioP1;P1;durP2;ratioP2;P2;SDS_P1;SDS_P2;PMS_P1;PMS_P2;Temp;Humidity;BMP_temperature;BMP_pressure;BME280_temperature;BME280_humidity;BME280_pressure;Samples;Min_cycle;Max_cycle;Signal;HPM_P1;HPM_P2
2023/08/13 00:01:43;;;;;;;0.00;0.00;;;20.20;99.90;;;;;;5002166;28;20743;-77
2023/08/13 00:04:08;;;;;;;0.10;0.10;;;20.20;99.90;;;;;;5003743;28;20034;-77
2023/08/13 00:06:34;;;;;;;0.00;0.00;;;20.30;99.90;;;;;;5017348;28;20042;-75
2023/08/13 00:09:00;;;;;;;0.30;0.30;;;20.30;99.90;;;;;;5003273;28;20037;-77
2023/08/13 00:11:25;;;;;;;0.00;0.00;;;20.40;99.90;;;;;;5002665;28;20022;-77
2023/08/13 00:13:51;;;;;;;0.00;0.00;;;20.40;99.90;;;;;;5002151;28;20037;-78
2023/08/13 00:16:17;;;;;;;0.00;0.00;;;20.40;99.90;;;;;;5002569;28;20033;-77
2023/08/13 00:18:42;;;;;;;0.45;0.10;;;20.40;99.90;;;;;;5000306;28;20038;-77
2023/08/13 00:21:08;;;;;;;0.22;0.20;;;20.50;99.90;;;;;;5005935;28;20472;-77
2023/08/13 00:23:34;;;;;;;0.00;0.00;;;20.40;99.90;;;;;;5000702;28;20033;-77
2023/08/13 00:25:59;;;;;;;0.00;0.00;;;20.50;99.90;;;;;;5001584;28;20385;-76
2023/08/13 00:28:25;;;;;;;0.00;0.00;;;20.40;99.90;;;;;;4999118;28;20105;-77
2023/08/13 00:30:51;;;;;;;0.00;0.00;;;20.40;99.90;;;;;;5000432;28;20022;-77
2023/08/13 00:33:16;;;;;;;0.00;0.00;;;20.40;99.90;;;;;;5002471;28;20030;-77
2023/08/13 00:35:42;;;;;;;0.00;0.00;;;20.40;99.90;;;;;;5001996;28;20025;-77
2023/08/13 00:38:07;;;;;;;0.00;0.00;;;20.30;99.90;;;;;;5002497;28;20105;-76
2023/08/13 00:40:34;;;;;;;0.00;0.00;;;20.40;99.90;;;;;;5000057;28;20026;-77
2023/08/13 00:43:00;;;;;;;0.00;0.00;;;20.40;99.90;;;;;;4999308;28;20034;-77
2023/08/13 00:45:26;;;;;;;0.00;0.00;;;20.40;99.90;;;;;;4983855;28;20124;-77
2023/08/13 00:47:52;;;;;;;0.00;0.00;;;20.40;99.90;;;;;;4998994;28;20095;-77
2023/08/13 00:50:17;;;;;;;;;;;20.50;99.90;;;;;;5002642;28;20453;-77
2023/08/13 00:52:44;;;;;;;0.00;0.00;;;20.50;99.90;;;;;;5002910;28;19980;-77
2023/08/13 00:55:11;;;;;;;0.10;0.10;;;20.50;99.90;;;;;;4999645;28;20485;-76
2023/08/13 00:57:38;;;;;;;0.20;0.20;;;20.50;99.90;;;;;;5001725;28;20037;-78
2023/08/13 01:00:06;;;;;;;0.00;0.00;;;20.50;99.90;;;;;;5001735;28;20026;-77
2023/08/13 01:02:32;;;;;;;0.00;0.00;;;20.50;99.90;;;;;;4999770;28;20824;-77
2023/08/13 01:04:59;;;;;;;0.08;0.08;;;20.50;99.90;;;;;;5000985;28;20042;-77
2023/08/13 01:07:40;;;;;;;0.00;0.00;;;20.50;99.90;;;;;;5000895;28;20072;-77
2023/08/13 01:10:41;;;;;;;0.00;0.00;;;20.50;99.90;;;;;;5002415;28;20105;-76
2023/08/13 01:13:30;;;;;;;0.00;0.00;;;20.50;99.90;;;;;;4959629;28;20038;-77
2023/08/13 01:15:58;;;;;;;0.00;0.00;;;20.50;99.90;;;;;;5000055;28;20030;-76
2023/08/13 01:18:24;;;;;;;0.00;0.00;;;20.50;99.90;;;;;;5002459;28;20481;-77
2023/08/13 01:20:50;;;;;;;0.13;0.13;;;20.50;99.90;;;;;;5001619;28;20037;-77
2023/08/13 01:23:16;;;;;;;0.10;0.10;;;20.60;99.90;;;;;;5001862;28;20034;-77
2023/08/13 01:25:52;;;;;;;0.00;0.00;;;20.60;99.90;;;;;;4999875;28;20046;-77
2023/08/13 01:28:24;;;;;;;;;;;20.50;99.90;;;;;;5002273;28;20038;-78
2023/08/13 01:31:04;;;;;;;0.00;0.00;;;20.60;99.90;;;;;;5001803;28;20454;-76
2023/08/13 01:33:33;;;;;;;0.00;0.00;;;20.60;99.90;;;;;;5000011;28;20572;-77
2023/08/13 01:36:01;;;;;;;0.22;0.00;;;20.60;99.90;;;;;;5002403;28;20042;-75
2023/08/13 01:38:27;;;;;;;0.00;0.00;;;20.50;99.90;;;;;;5001374;28;20057;-76
2023/08/13 01:40:53;;;;;;;0.00;0.00;;;20.50;99.90;;;;;;5001828;28;20030;-76
2023/08/13 01:43:19;;;;;;;0.00;0.00;;;20.50;99.90;;;;;;5001598;28;20038;-77
2023/08/13 01:45:45;;;;;;;0.10;0.10;;;20.50;99.90;;;;;;4996055;28;20026;-77
2023/08/13 01:48:11;;;;;;;0.40;0.20;;;20.50;99.90;;;;;;4983351;28;20038;-77
2023/08/13 01:50:39;;;;;;;0.00;0.00;;;20.60;99.90;;;;;;5002072;28;20026;-77
2023/08/13 01:53:04;;;;;;;0.10;0.10;;;20.60;99.90;;;;;;5002317;28;20418;-77
2023/08/13 01:55:30;;;;;;;0.20;0.20;;;20.50;99.90;;;;;;5001697;28;20137;-77
2023/08/13 01:57:56;;;;;;;0.00;0.00;;;20.40;99.90;;;;;;5001767;28;20397;-77
2023/08/13 02:00:21;;;;;;;0.00;0.00;;;20.30;99.90;;;;;;4990075;28;20033;-77
2023/08/13 02:02:47;;;;;;;0.00;0.00;;;20.30;99.90;;;;;;5002251;28;20045;-77
2023/08/13 02:05:13;;;;;;;0.00;0.00;;;20.30;99.90;;;;;;5004019;28;20034;-77
2023/08/13 02:07:38;;;;;;;0.00;0.00;;;20.20;99.90;;;;;;5005854;28;20038;-77
2023/08/13 02:10:04;;;;;;;0.00;0.00;;;20.20;99.90;;;;;;5005791;28;20026;-76
2023/08/13 02:12:30;;;;;;;;;;;20.10;99.90;;;;;;5002015;28;20485;-77
2023/08/13 02:14:56;;;;;;;0.00;0.00;;;20.00;99.90;;;;;;4986256;28;19916;-77
2023/08/13 02:17:22;;;;;;;0.00;0.00;;;20.00;99.90;;;;;;5005208;28;20449;-75
2023/08/13 02:19:47;;;;;;;0.00;0.00;;;19.90;99.90;;;;;;5005274;28;20042;-76
2023/08/13 02:22:13;;;;;;;0.08;0.08;;;19.90;99.90;;;;;;5002206;28;20030;-77
2023/08/13 02:24:39;;;;;;;0.00;0.00;;;19.80;99.90;;;;;;4988015;28;20605;-77
2023/08/13 02:27:04;;;;;;;0.00;0.00;;;19.80;99.90;;;;;;5002315;28;20030;-77
2023/08/13 02:29:30;;;;;;;1.48;0.08;;;19.80;99.90;;;;;;5006186;28;20030;-77
2023/08/13 02:31:56;;;;;;;0.00;0.00;;;19.80;99.90;;;;;;5007197;28;20037;-76
2023/08/13 02:34:24;;;;;;;0.00;0.00;;;19.70;99.90;;;;;;5005751;28;20037;-77
2023/08/13 02:36:51;;;;;;;0.17;0.17;;;19.70;99.90;;;;;;4988407;28;20052;-76
2023/08/13 02:39:17;;;;;;;0.00;0.00;;;19.80;99.90;;;;;;5003414;28;20266;-77
2023/08/13 02:41:42;;;;;;;0.22;0.22;;;19.70;99.90;;;;;;5013065;28;20095;-77
2023/08/13 02:44:09;;;;;;;0.00;0.00;;;19.70;99.90;;;;;;5005642;28;20069;-77
2023/08/13 02:46:35;;;;;;;0.10;0.10;;;19.70;99.90;;;;;;5002662;28;20486;-77
2023/08/13 02:49:00;;;;;;;0.00;0.00;;;19.70;99.90;;;;;;5004354;28;20020;-77
2023/08/13 02:51:26;;;;;;;0.00;0.00;;;19.70;99.90;;;;;;4984392;28;20030;-75
2023/08/13 02:53:52;;;;;;;0.10;0.10;;;19.60;99.90;;;;;;5003925;28;20049;-77
2023/08/13 02:56:19;;;;;;;0.00;0.00;;;19.60;99.90;;;;;;5003701;28;20510;-77
2023/08/13 02:58:45;;;;;;;0.00;0.00;;;19.50;99.90;;;;;;4984417;28;20889;-76
2023/08/13 03:01:11;;;;;;;0.00;0.00;;;19.50;99.90;;;;;;5004948;28;20038;-76
2023/08/13 03:03:36;;;;;;;0.00;0.00;;;19.40;99.90;;;;;;5004153;28;20395;-77
2023/08/13 03:06:02;;;;;;;0.20;0.20;;;19.40;99.90;;;;;;5003988;28;20175;-77
2023/08/13 03:08:28;;;;;;;0.40;0.17;;;19.30;99.90;;;;;;5004024;28;20057;-77
2023/08/13 03:10:54;;;;;;;0.00;0.00;;;19.30;99.90;;;;;;5006977;28;20024;-76
2023/08/13 03:13:20;;;;;;;0.00;0.00;;;19.30;99.90;;;;;;5003611;28;20030;-77
2023/08/13 03:15:45;;;;;;;0.00;0.00;;;19.30;99.90;;;;;;5004102;28;20029;-77
2023/08/13 03:18:11;;;;;;;0.08;0.08;;;19.30;99.90;;;;;;4986536;28;20044;-78
2023/08/13 03:20:37;;;;;;;0.55;0.10;;;19.30;99.90;;;;;;5003569;28;20432;-77
2023/08/13 03:23:03;;;;;;;0.00;0.00;;;19.30;99.90;;;;;;5002969;28;20168;-76
2023/08/13 03:25:29;;;;;;;0.00;0.00;;;19.30;99.90;;;;;;5004752;28;20033;-76
2023/08/13 03:27:54;;;;;;;0.00;0.00;;;19.30;99.90;;;;;;5002858;28;20603;-77
2023/08/13 03:30:20;;;;;;;0.00;0.00;;;19.20;99.90;;;;;;5000734;28;20113;-76
2023/08/13 03:32:46;;;;;;;0.00;0.00;;;19.20;99.90;;;;;;5004048;28;20030;-77
2023/08/13 03:35:11;;;;;;;0.10;0.10;;;19.20;99.90;;;;;;5003985;28;20307;-77
2023/08/13 03:37:37;;;;;;;0.00;0.00;;;19.20;99.90;;;;;;4997417;28;20041;-77
2023/08/13 03:40:05;;;;;;;0.10;0.10;;;19.20;99.90;;;;;;5002737;28;20504;-77
2023/08/13 03:42:31;;;;;;;0.00;0.00;;;19.20;99.90;;;;;;4998567;28;20034;-77
2023/08/13 03:44:57;;;;;;;0.00;0.00;;;19.10;99.90;;;;;;4985899;28;20370;-77
2023/08/13 03:47:23;;;;;;;0.00;0.00;;;19.10;99.90;;;;;;5000876;28;20088;-76
2023/08/13 03:49:49;;;;;;;0.00;0.00;;;19.10;99.90;;;;;;5004225;28;20026;-76
2023/08/13 03:52:14;;;;;;;0.20;0.20;;;19.10;99.90;;;;;;5001103;28;20084;-75
2023/08/13 03:54:40;;;;;;;0.00;0.00;;;19.10;99.90;;;;;;5003524;28;20064;-77
2023/08/13 03:57:06;;;;;;;0.00;0.00;;;19.10;99.90;;;;;;4987424;28;20232;-77
2023/08/13 03:59:31;;;;;;;0.00;0.00;;;19.10;99.90;;;;;;5000451;28;20365;-77
2023/08/13 04:01:58;;;;;;;0.30;0.17;;;19.10;99.90;;;;;;4985151;28;20064;-76
2023/08/13 04:04:24;;;;;;;0.00;0.00;;;19.10;99.90;;;;;;5000771;28;20397;-77
2023/08/13 04:06:51;;;;;;;0.00;0.00;;;19.10;99.90;;;;;;5003457;28;20029;-76
2023/08/13 04:09:17;;;;;;;0.00;0.00;;;19.00;99.90;;;;;;5001920;28;20040;-77
2023/08/13 04:11:43;;;;;;;0.00;0.00;;;19.00;99.90;;;;;;5002170;28;20109;-76
2023/08/13 04:14:09;;;;;;;;;;;19.00;99.90;;;;;;4982831;28;20022;-78
2023/08/13 04:16:34;;;;;;;0.00;0.00;;;19.00;99.90;;;;;;4981020;28;19936;-76
2023/08/13 04:19:00;;;;;;;0.00;0.00;;;19.10;99.90;;;;;;4982806;28;20052;-77
2023/08/13 04:21:26;;;;;;;0.00;0.00;;;19.20;99.90;;;;;;4981703;28;20031;-76
2023/08/13 04:23:56;;;;;;;0.10;0.10;;;19.20;99.90;;;;;;4981636;28;20026;-77
2023/08/13 04:26:21;;;;;;;0.00;0.00;;;19.40;99.90;;;;;;4978276;28;20694;-77
2023/08/13 04:28:47;;;;;;;0.00;0.00;;;19.40;99.90;;;;;;4997079;28;20026;-77
2023/08/13 04:31:13;;;;;;;0.30;0.20;;;19.50;99.90;;;;;;4984711;28;20351;-77
2023/08/13 04:33:38;;;;;;;0.00;0.00;;;19.50;99.90;;;;;;5001971;28;20037;-77
2023/08/13 04:36:04;;;;;;;0.00;0.00;;;19.60;99.90;;;;;;4995120;28;20426;-77
2023/08/13 04:38:30;;;;;;;0.00;0.00;;;19.70;99.90;;;;;;4994710;28;20025;-74
2023/08/13 04:40:56;;;;;;;0.00;0.00;;;19.80;99.90;;;;;;4982587;28;20040;-74
2023/08/13 04:43:22;;;;;;;0.00;0.00;;;19.80;99.90;;;;;;4984508;28;20033;-74
2023/08/13 04:45:48;;;;;;;0.00;0.00;;;19.90;99.90;;;;;;5001645;28;20590;-75
2023/08/13 04:48:18;;;;;;;0.05;0.05;;;20.10;99.90;;;;;;4982964;28;20034;-72
2023/08/13 04:50:44;;;;;;;0.00;0.00;;;20.40;99.90;;;;;;5005018;28;20036;-72
2023/08/13 04:53:11;;;;;;;0.03;0.03;;;20.60;99.90;;;;;;5001027;28;20026;-78
2023/08/13 04:55:37;;;;;;;0.00;0.00;;;21.20;99.90;;;;;;4987205;28;20025;-76
2023/08/13 04:58:03;;;;;;;0.00;0.00;;;21.50;99.90;;;;;;5002127;28;20453;-77
2023/08/13 05:00:28;;;;;;;0.00;0.00;;;21.50;99.90;;;;;;5001527;28;20040;-76
2023/08/13 05:02:54;;;;;;;0.00;0.00;;;21.50;99.90;;;;;;4998194;28;20038;-76
2023/08/13 05:05:20;;;;;;;0.05;0.05;;;21.20;99.90;;;;;;5001667;28;20155;-76
2023/08/13 05:07:45;;;;;;;0.00;0.00;;;21.20;99.90;;;;;;5004276;28;20042;-75
2023/08/13 05:10:11;;;;;;;0.43;0.15;;;21.30;99.90;;;;;;4998553;28;20037;-77
2023/08/13 05:12:37;;;;;;;0.08;0.00;;;21.30;99.90;;;;;;5001625;28;20033;-77
2023/08/13 05:15:03;;;;;;;0.00;0.00;;;21.30;99.90;;;;;;5001704;28;20111;-78
2023/08/13 05:17:29;;;;;;;0.20;0.00;;;21.20;99.90;;;;;;4999956;28;20532;-78
2023/08/13 05:19:54;;;;;;;2.40;0.30;;;21.20;99.90;;;;;;5003666;28;20137;-78
2023/08/13 05:22:20;;;;;;;0.00;0.00;;;21.30;99.90;;;;;;5001914;28;20034;-76
2023/08/13 05:24:47;;;;;;;0.00;0.00;;;21.40;99.90;;;;;;5004924;28;20524;-77
2023/08/13 05:27:14;;;;;;;1.85;0.17;;;21.30;99.90;;;;;;4999450;28;20029;-78
2023/08/13 05:29:39;;;;;;;0.00;0.00;;;21.30;99.90;;;;;;4994815;28;20342;-78
2023/08/13 05:32:05;;;;;;;0.00;0.00;;;21.20;99.90;;;;;;5000603;28;20037;-78
2023/08/13 05:34:31;;;;;;;0.00;0.00;;;21.30;99.90;;;;;;4988589;28;20033;-78
2023/08/13 05:36:56;;;;;;;0.00;0.00;;;21.30;99.90;;;;;;5005784;28;20354;-78
2023/08/13 05:39:22;;;;;;;0.00;0.00;;;21.20;99.90;;;;;;5002532;28;20029;-78
2023/08/13 05:41:49;;;;;;;0.52;0.22;;;21.40;99.90;;;;;;5005380;28;20026;-78
2023/08/13 05:44:14;;;;;;;0.00;0.00;;;21.30;99.90;;;;;;5004898;28;20045;-78
2023/08/13 05:46:40;;;;;;;0.00;0.00;;;21.30;99.90;;;;;;5002890;28;20030;-77
2023/08/13 05:49:06;;;;;;;0.00;0.00;;;21.50;99.90;;;;;;4988975;28;20030;-78
2023/08/13 05:51:31;;;;;;;0.00;0.00;;;22.00;99.90;;;;;;5006539;28;20033;-78
2023/08/13 05:53:57;;;;;;;0.00;0.00;;;22.60;99.90;;;;;;5004449;28;20080;-78
2023/08/13 05:56:22;;;;;;;0.10;0.10;;;22.60;99.90;;;;;;4987777;28;20033;-78
2023/08/13 05:58:48;;;;;;;0.15;0.00;;;23.10;99.90;;;;;;4989322;28;20030;-77
2023/08/13 06:01:14;;;;;;;0.00;0.00;;;23.70;99.90;;;;;;5003570;28;20026;-78
2023/08/13 06:03:39;;;;;;;0.00;0.00;;;24.80;99.90;;;;;;5005795;28;20897;-80
2023/08/13 06:06:05;;;;;;;;;;;25.50;99.90;;;;;;5007262;28;20030;-79
2023/08/13 06:08:30;;;;;;;0.00;0.00;;;26.00;99.90;;;;;;5008355;28;19917;-80
2023/08/13 06:10:56;;;;;;;;;;;26.30;99.90;;;;;;5007437;28;20028;-80
2023/08/13 06:13:22;;;;;;;0.30;0.30;;;27.10;99.90;;;;;;5003128;28;19991;-78
2023/08/13 06:15:47;;;;;;;0.00;0.00;;;27.40;99.90;;;;;;4987891;28;20054;-80
2023/08/13 06:18:13;;;;;;;0.00;0.00;;;27.60;99.90;;;;;;5009129;28;20140;-82
2023/08/13 06:20:38;;;;;;;0.00;0.00;;;27.50;99.90;;;;;;5005894;28;20068;-79
2023/08/13 06:23:04;;;;;;;0.00;0.00;;;27.80;99.90;;;;;;5002242;28;20037;-83
2023/08/13 06:25:31;;;;;;;0.00;0.00;;;28.10;99.90;;;;;;5004609;28;20668;-82
2023/08/13 06:27:57;;;;;;;0.00;0.00;;;28.50;99.90;;;;;;5004977;28;20149;-81
2023/08/13 06:30:24;;;;;;;0.15;0.00;;;28.80;99.90;;;;;;5005718;28;20034;-82
2023/08/13 06:32:50;;;;;;;0.20;0.20;;;29.30;99.80;;;;;;5006344;28;20029;-82
2023/08/13 06:35:15;;;;;;;0.00;0.00;;;29.60;99.00;;;;;;4986809;28;20026;-83
2023/08/13 06:37:41;;;;;;;0.20;0.20;;;29.40;99.40;;;;;;4987838;28;20040;-82
2023/08/13 06:40:08;;;;;;;0.00;0.00;;;30.00;98.00;;;;;;5005643;28;20064;-82
2023/08/13 06:42:33;;;;;;;0.00;0.00;;;29.80;98.00;;;;;;5004286;28;20080;-83
2023/08/13 06:44:59;;;;;;;0.30;0.30;;;29.80;97.70;;;;;;5004658;28;20014;-82
2023/08/13 06:47:24;;;;;;;0.00;0.00;;;28.90;98.50;;;;;;5005299;28;20037;-83
2023/08/13 06:49:50;;;;;;;0.20;0.20;;;28.30;99.60;;;;;;5004649;28;20018;-82
2023/08/13 06:52:16;;;;;;;0.10;0.10;;;29.50;98.60;;;;;;5004681;28;20484;-81
2023/08/13 06:54:42;;;;;;;0.10;0.10;;;31.00;96.70;;;;;;4984170;28;20546;-83
2023/08/13 06:57:08;;;;;;;0.00;0.00;;;31.20;95.60;;;;;;5005564;28;20246;-83
2023/08/13 06:59:35;;;;;;;0.10;0.10;;;31.00;95.10;;;;;;5002909;28;20026;-81
2023/08/13 07:02:00;;;;;;;0.10;0.10;;;30.20;96.20;;;;;;5004827;28;20022;-83
2023/08/13 07:04:26;;;;;;;0.00;0.00;;;30.70;95.30;;;;;;5003128;28;20100;-82
2023/08/13 07:06:52;;;;;;;0.03;0.03;;;31.20;94.50;;;;;;4988599;28;20026;-82
2023/08/13 07:09:18;;;;;;;0.15;0.15;;;31.40;93.70;;;;;;5004451;28;20050;-81
2023/08/13 07:11:45;;;;;;;0.00;0.00;;;31.00;94.20;;;;;;5000858;28;20833;-82
2023/08/13 07:14:10;;;;;;;0.00;0.00;;;32.00;94.00;;;;;;5004981;28;20209;-81
2023/08/13 07:16:36;;;;;;;0.00;0.00;;;32.80;92.90;;;;;;5005212;28;20605;-81
2023/08/13 07:19:02;;;;;;;0.00;0.00;;;33.60;91.50;;;;;;5008843;28;20052;-78
2023/08/13 07:21:27;;;;;;;0.00;0.00;;;33.20;90.90;;;;;;5006015;28;20128;-82
2023/08/13 07:23:54;;;;;;;0.10;0.10;;;32.40;91.00;;;;;;4987474;28;20037;-82
2023/08/13 07:26:21;;;;;;;0.10;0.10;;;32.80;91.20;;;;;;5004525;28;20026;-81
2023/08/13 07:28:46;;;;;;;0.00;0.00;;;33.10;90.60;;;;;;4987714;28;20061;-83
2023/08/13 07:31:12;;;;;;;0.03;0.03;;;32.20;91.70;;;;;;5003562;28;20050;-81
2023/08/13 07:33:38;;;;;;;0.00;0.00;;;33.20;90.60;;;;;;5002196;28;20100;-81
2023/08/13 07:36:05;;;;;;;0.20;0.20;;;33.90;88.60;;;;;;4987467;28;20057;-79
2023/08/13 07:38:30;;;;;;;0.22;0.10;;;32.50;89.70;;;;;;5003772;28;20053;-82
2023/08/13 07:40:57;;;;;;;0.20;0.20;;;31.70;90.90;;;;;;4985699;28;20057;-81
2023/08/13 07:43:24;;;;;;;0.00;0.00;;;32.00;90.40;;;;;;5005793;28;20702;-82
2023/08/13 07:45:51;;;;;;;0.05;0.05;;;31.10;91.70;;;;;;5003962;28;20373;-83
2023/08/13 07:48:17;;;;;;;0.03;0.03;;;31.60;91.60;;;;;;5003984;28;20516;-84
2023/08/13 07:50:43;;;;;;;0.08;0.08;;;32.30;90.60;;;;;;5004089;28;20038;-83
2023/08/13 07:53:09;;;;;;;0.00;0.00;;;32.40;90.20;;;;;;5003950;28;20088;-84
2023/08/13 07:55:35;;;;;;;0.05;0.05;;;33.40;89.30;;;;;;5004066;28;20044;-82
2023/08/13 07:58:01;;;;;;;0.00;0.00;;;32.90;89.60;;;;;;5000984;28;20596;-84
2023/08/13 08:00:26;;;;;;;0.13;0.13;;;32.20;90.10;;;;;;5003639;28;20077;-83
2023/08/13 08:02:53;;;;;;;0.08;0.08;;;32.20;90.40;;;;;;5003524;28;20045;-82
2023/08/13 08:05:22;;;;;;;0.05;0.05;;;31.70;90.70;;;;;;5003790;28;20034;-82
2023/08/13 08:07:48;;;;;;;0.00;0.00;;;32.40;90.10;;;;;;5003209;28;20030;-83
2023/08/13 08:10:13;;;;;;;0.52;0.05;;;31.90;90.60;;;;;;5004496;28;20586;-83
2023/08/13 08:12:39;;;;;;;0.00;0.00;;;33.70;89.20;;;;;;5002098;28;20029;-83
2023/08/13 08:15:05;;;;;;;0.10;0.10;;;35.20;85.70;;;;;;4982659;28;20468;-85
2023/08/13 08:17:33;;;;;;;0.13;0.13;;;33.80;85.70;;;;;;4986741;28;20512;-82
2023/08/13 08:19:59;;;;;;;0.10;0.10;;;33.30;86.80;;;;;;5001215;28;20076;-82
2023/08/13 08:22:26;;;;;;;0.20;0.20;;;32.90;86.40;;;;;;4995921;28;20026;-83
2023/08/13 08:24:53;;;;;;;0.00;0.00;;;32.80;88.30;;;;;;5003087;28;20073;-77
2023/08/13 08:27:19;;;;;;;0.73;0.10;;;34.40;85.60;;;;;;4989914;28;20121;-82
2023/08/13 08:29:45;;;;;;;0.00;0.00;;;33.00;86.00;;;;;;4986037;28;20112;-83
2023/08/13 08:32:10;;;;;;;0.03;0.03;;;33.80;86.00;;;;;;5003579;28;20037;-84
2023/08/13 08:34:36;;;;;;;0.00;0.00;;;34.30;86.30;;;;;;5000664;28;20022;-81
2023/08/13 08:37:03;;;;;;;0.00;0.00;;;35.90;83.00;;;;;;5000895;28;20046;-80
2023/08/13 08:39:29;;;;;;;0.08;0.08;;;36.40;80.50;;;;;;5005236;28;20485;-83
2023/08/13 08:41:57;;;;;;;0.15;0.15;;;35.50;81.60;;;;;;5003457;28;20030;-83
2023/08/13 08:44:23;;;;;;;0.03;0.03;;;34.90;82.00;;;;;;4986643;28;20424;-77
2023/08/13 08:46:50;;;;;;;0.00;0.00;;;34.60;82.60;;;;;;5008192;28;20433;-84
2023/08/13 08:49:18;;;;;;;0.17;0.17;;;34.40;82.50;;;;;;4982400;28;20196;-82
2023/08/13 08:51:45;;;;;;;0.22;0.10;;;35.90;81.60;;;;;;5004257;28;20527;-82
2023/08/13 08:54:11;;;;;;;0.10;0.10;;;36.50;78.50;;;;;;4987673;28;20442;-80
2023/08/13 08:56:37;;;;;;;0.00;0.00;;;37.00;77.80;;;;;;5005055;28;20100;-80
2023/08/13 08:59:04;;;;;;;0.10;0.10;;;37.80;76.60;;;;;;5004951;28;20088;-81
2023/08/13 09:01:30;;;;;;;0.08;0.08;;;38.70;75.50;;;;;;5000991;28;20030;-81
2023/08/13 09:03:57;;;;;;;0.00;0.00;;;37.40;74.20;;;;;;5005722;28;20349;-81
2023/08/13 09:06:23;;;;;;;0.00;0.00;;;35.80;76.60;;;;;;4984773;28;20033;-76
2023/08/13 09:08:49;;;;;;;0.00;0.00;;;37.20;76.20;;;;;;5010759;28;20611;-80
2023/08/13 09:11:14;;;;;;;0.20;0.20;;;37.80;73.60;;;;;;5004416;28;20481;-80
2023/08/13 09:13:50;;;;;;;0.47;0.20;;;37.20;73.90;;;;;;4990049;28;20033;-79
2023/08/13 09:16:16;;;;;;;0.10;0.10;;;36.50;74.60;;;;;;5017086;28;20022;-79
2023/08/13 09:18:42;;;;;;;0.35;0.00;;;37.90;72.80;;;;;;5010367;28;20400;-79
2023/08/13 09:21:11;;;;;;;0.20;0.20;;;39.10;72.20;;;;;;5017329;28;20057;-78
2023/08/13 09:23:40;;;;;;;0.05;0.00;;;38.40;71.00;;;;;;5015705;28;20083;-80
2023/08/13 09:26:07;;;;;;;0.50;0.50;;;38.40;70.00;;;;;;5009469;28;20488;-80
2023/08/13 09:28:32;;;;;;;0.10;0.10;;;37.80;70.20;;;;;;5010789;28;20127;-80
2023/08/13 09:30:58;;;;;;;0.00;0.00;;;38.10;70.20;;;;;;4997683;28;20022;-79
2023/08/13 09:33:26;;;;;;;0.00;0.00;;;38.40;70.30;;;;;;5016004;28;20042;-76
2023/08/13 09:35:52;;;;;;;0.28;0.10;;;38.20;70.50;;;;;;5016406;28;20037;-79
2023/08/13 09:38:17;;;;;;;0.00;0.00;;;39.10;69.30;;;;;;5015163;28;20030;-79
2023/08/13 09:40:45;;;;;;;0.40;0.17;;;39.10;69.00;;;;;;4992200;28;20037;-80
2023/08/13 09:43:16;;;;;;;0.45;0.15;;;38.40;68.70;;;;;;5000949;28;20026;-80
2023/08/13 09:45:42;;;;;;;0.10;0.10;;;38.40;69.00;;;;;;4995922;28;20105;-79
2023/08/13 09:48:14;;;;;;;0.00;0.00;;;38.40;68.80;;;;;;4982750;28;20033;-78
2023/08/13 09:50:40;;;;;;;0.10;0.10;;;37.70;70.00;;;;;;5005623;28;20454;-81
2023/08/13 09:53:12;;;;;;;0.00;0.00;;;37.20;70.60;;;;;;5007116;28;20022;-82
2023/08/13 09:55:47;;;;;;;0.00;0.00;;;37.00;70.60;;;;;;4999050;28;20528;-80
2023/08/13 09:58:14;;;;;;;0.20;0.20;;;38.10;70.40;;;;;;5001602;28;20037;-81
2023/08/13 10:00:40;;;;;;;0.10;0.10;;;39.70;69.30;;;;;;5005370;28;20829;-81
2023/08/13 10:03:06;;;;;;;0.03;0.03;;;40.70;66.90;;;;;;5004317;28;20045;-80
2023/08/13 10:05:32;;;;;;;0.20;0.20;;;41.60;65.00;;;;;;5003647;28;20042;-80
2023/08/13 10:08:02;;;;;;;0.20;0.10;;;41.50;65.00;;;;;;5007638;28;20038;-80
2023/08/13 10:10:30;;;;;;;0.00;0.00;;;42.10;64.40;;;;;;4983842;28;20018;-79
2023/08/13 10:12:56;;;;;;;0.20;0.20;;;42.20;64.50;;;;;;4992483;28;20034;-80
2023/08/13 10:15:22;;;;;;;0.00;0.00;;;38.60;65.20;;;;;;5002703;28;20603;-80
2023/08/13 10:17:49;;;;;;;0.05;0.05;;;38.50;68.10;;;;;;4998608;28;20034;-81
2023/08/13 10:20:18;;;;;;;0.08;0.08;;;39.80;66.70;;;;;;4987704;28;20116;-80
2023/08/13 10:22:46;;;;;;;0.00;0.00;;;40.40;65.60;;;;;;5006308;28;20030;-79
2023/08/13 10:25:26;;;;;;;0.30;0.30;;;39.90;66.20;;;;;;5000330;28;20133;-80
2023/08/13 10:27:53;;;;;;;0.10;0.08;;;40.50;66.40;;;;;;4967994;28;20120;-80
2023/08/13 10:30:19;;;;;;;0.03;0.03;;;41.30;64.60;;;;;;4988507;28;20029;-80
2023/08/13 10:32:57;;;;;;;0.00;0.00;;;41.60;64.40;;;;;;5003058;28;20033;-81
2023/08/13 10:35:42;;;;;;;0.65;0.20;;;42.00;63.70;;;;;;5005491;28;20021;-80
2023/08/13 10:38:08;;;;;;;0.22;0.10;;;41.70;64.20;;;;;;5006322;28;20022;-82
2023/08/13 10:40:35;;;;;;;0.00;0.00;;;40.70;64.30;;;;;;5002200;28;20108;-81
2023/08/13 10:43:04;;;;;;;0.10;0.10;;;40.90;64.80;;;;;;4986813;28;20485;-82
2023/08/13 10:45:35;;;;;;;0.28;0.28;;;42.60;64.00;;;;;;4987127;28;20516;-83
2023/08/13 10:48:03;;;;;;;0.20;0.20;;;42.60;61.70;;;;;;5002205;28;20029;-82
2023/08/13 10:50:39;;;;;;;0.00;0.00;;;42.00;62.20;;;;;;5004334;28;20520;-81
2023/08/13 10:53:13;;;;;;;0.00;0.00;;;41.90;62.30;;;;;;5002997;28;20037;-81
2023/08/13 10:55:48;;;;;;;0.40;0.40;;;42.30;61.20;;;;;;5005707;28;20500;-81
2023/08/13 10:58:38;;;;;;;0.00;0.00;;;39.80;64.30;;;;;;5003288;28;20056;-82
2023/08/13 11:01:11;;;;;;;0.00;0.00;;;37.50;65.60;;;;;;4986521;28;20034;-81
2023/08/13 11:03:55;;;;;;;0.10;0.10;;;38.80;66.00;;;;;;4986126;28;20437;-84
2023/08/13 11:06:23;;;;;;;0.20;0.20;;;37.00;66.80;;;;;;5006768;28;20497;-85
2023/08/13 11:08:49;;;;;;;0.68;0.57;;;34.90;70.60;;;;;;4986497;28;20033;-83
2023/08/13 11:11:19;;;;;;;0.00;0.00;;;33.80;72.80;;;;;;4989363;28;20026;-81
2023/08/13 11:13:45;;;;;;;0.03;0.03;;;33.40;73.10;;;;;;5006216;28;20504;-83
2023/08/13 11:16:11;;;;;;;0.40;0.30;;;33.10;74.80;;;;;;5003520;28;20475;-85
2023/08/13 11:18:37;;;;;;;0.00;0.00;;;33.00;74.50;;;;;;4988228;28;20034;-82
2023/08/13 11:21:03;;;;;;;0.10;0.10;;;33.00;75.40;;;;;;5006144;28;20488;-84
2023/08/13 11:23:29;;;;;;;0.00;0.00;;;32.80;75.60;;;;;;5002505;28;20481;-78
2023/08/13 11:25:56;;;;;;;0.00;0.00;;;32.60;76.40;;;;;;5008004;28;20026;-77
2023/08/13 11:28:24;;;;;;;0.00;0.00;;;32.50;76.70;;;;;;5005203;28;20018;-80
2023/08/13 11:30:56;;;;;;;0.00;0.00;;;32.60;77.70;;;;;;5004978;28;20021;-80
2023/08/13 11:33:22;;;;;;;0.00;0.00;;;32.70;75.70;;;;;;5003215;28;20097;-79
2023/08/13 11:35:49;;;;;;;0.00;0.00;;;32.90;75.80;;;;;;4986335;28;20027;-82
2023/08/13 11:38:16;;;;;;;0.00;0.00;;;33.00;75.10;;;;;;4982251;28;20076;-80
2023/08/13 11:40:42;;;;;;;0.00;0.00;;;32.90;75.30;;;;;;4999319;28;20560;-80
2023/08/13 11:43:12;;;;;;;0.00;0.00;;;32.70;76.90;;;;;;5005195;28;20018;-81
2023/08/13 11:45:39;;;;;;;0.03;0.03;;;32.70;76.00;;;;;;4984916;28;20033;-82
2023/08/13 11:48:20;;;;;;;0.00;0.00;;;32.40;76.20;;;;;;5004459;28;20050;-81
2023/08/13 11:50:55;;;;;;;0.10;0.10;;;32.40;77.50;;;;;;5005068;28;20341;-80
2023/08/13 11:53:21;;;;;;;0.00;0.00;;;32.50;77.70;;;;;;5004991;28;20434;-82
2023/08/13 11:55:47;;;;;;;0.15;0.15;;;32.10;77.10;;;;;;4984194;28;20108;-79
2023/08/13 11:58:18;;;;;;;0.05;0.05;;;32.00;77.60;;;;;;5004747;28;20030;-82
2023/08/13 12:00:44;;;;;;;0.05;0.05;;;31.80;77.90;;;;;;5005688;28;20022;-81
2023/08/13 12:03:12;;;;;;;0.00;0.00;;;31.50;77.70;;;;;;5005148;28;20033;-80
2023/08/13 12:05:39;;;;;;;0.00;0.00;;;31.60;79.10;;;;;;5004569;28;20787;-82
2023/08/13 12:08:09;;;;;;;0.00;0.00;;;31.70;79.80;;;;;;4986579;28;20509;-82
2023/08/13 12:10:35;;;;;;;0.05;0.05;;;32.00;78.40;;;;;;5003817;28;20022;-80
2023/08/13 12:13:01;;;;;;;0.00;0.00;;;32.20;78.20;;;;;;5000292;28;20413;-81
2023/08/13 12:15:28;;;;;;;0.00;0.00;;;32.50;78.00;;;;;;5003484;28;20041;-79
2023/08/13 12:17:56;;;;;;;0.00;0.00;;;32.40;76.80;;;;;;5004148;28;20495;-81
2023/08/13 12:20:23;;;;;;;0.00;0.00;;;32.30;77.10;;;;;;4986623;28;20092;-81
2023/08/13 12:22:50;;;;;;;0.00;0.00;;;32.30;78.00;;;;;;4986152;28;20088;-82
2023/08/13 12:25:16;;;;;;;0.00;0.00;;;32.30;77.00;;;;;;5002507;28;20072;-80
2023/08/13 12:27:43;;;;;;;0.00;0.00;;;32.10;77.30;;;;;;4987407;28;20025;-80
2023/08/13 12:30:09;;;;;;;0.00;0.00;;;32.10;78.10;;;;;;4987635;28;20238;-84
2023/08/13 12:32:35;;;;;;;0.00;0.00;;;32.40;78.50;;;;;;5002141;28;20026;-83
2023/08/13 12:35:01;;;;;;;0.05;0.03;;;32.70;76.70;;;;;;4986883;28;20026;-79
2023/08/13 12:37:29;;;;;;;0.00;0.00;;;32.70;76.80;;;;;;5002775;28;20693;-81
2023/08/13 12:39:55;;;;;;;0.00;0.00;;;32.70;77.10;;;;;;5002554;28;20029;-82
2023/08/13 12:42:20;;;;;;;0.00;0.00;;;32.70;78.40;;;;;;4981149;28;20029;-81
2023/08/13 12:44:48;;;;;;;0.10;0.10;;;32.50;77.40;;;;;;5001116;28;20635;-82
2023/08/13 12:47:14;;;;;;;0.00;0.00;;;32.20;77.10;;;;;;5001792;28;20440;-83